Friday, December 14, 2018, 7:13 PM EST
Back to Local

KCEF, Chicopee Falls / Westover Air Force Base

Location: Chicopee, MA, United States Lat: 42.2
Local Time: 7:13 PM EST ( 0:13 GMT) Lon: -72.533
Time Zone: US/Eastern Elev: 246 ft

Show me the last for .
Show Decoded

2018-12-14 18:56 METAR KCEF 142356Z 23005KT 10SM OVC014 04/00 A3031 RMK AO2A SLP273 T00351005
                 10043 20026 57019 =
2018-12-14 18:34 METAR KCEF 142334Z 27004KT 10SM OVC015 03/00 A3032 RMK AO2A SLP276 =
2018-12-14 17:56 METAR KCEF 142256Z 19004KT 10SM SCT017 OVC024 03/M01 A3033 RMK AO2A SCT V BKN
                 SLP280 T00261009 =
2018-12-14 16:56 METAR KCEF 142156Z 00000KT 10SM OVC030 03/M01 A3036 RMK AO2A SLP290 T00291006 =
2018-12-14 15:56 METAR KCEF 142056Z 00000KT 10SM BKN028 OVC035 04/M01 A3037 RMK AO2A SLP293
                 T00381012 57008 =
2018-12-14 14:56 METAR KCEF 141956Z 00000KT 10SM BKN026 OVC035 04/M01 A3037 RMK AO2A SLP293
                 T00421010 =
2018-12-14 13:56 METAR KCEF 141856Z 27003KT 10SM SCT030 BKN050 04/M01 A3038 RMK AO2A SLP296
                 T00401010 =
2018-12-14 12:56 METAR KCEF 141756Z 00000KT 10SM SCT025 OVC055 04/M01 A3039 RMK AO2A PRESFR
                 SLP300 T00361012 10036 21022 57042 =
2018-12-14 11:56 METAR KCEF 141656Z 23004KT 10SM BKN023 OVC060 03/M02 A3045 RMK AO2A SLP320
                 T00261018 =
2018-12-14 11:20 METAR KCEF 141620Z 00000KT 10SM FEW017 SCT023 OVC060 02/M02 A3046 RMK AO2A
                 PRESFR SLP324 =
2018-12-14 10:56 METAR KCEF 141556Z 00000KT 10SM BKN017 OVC060 01/M03 A3049 RMK AO2A SLP334
                 T00111030 =
2018-12-14 09:56 METAR KCEF 141456Z 34003KT 10SM BKN015 OVC035 00/M04 A3051 RMK AO2A SLP341
                 T10021039 52007 =
2018-12-14 08:56 METAR KCEF 141356Z 00000KT 10SM BKN015 OVC035 M01/M05 A3051 RMK AO2A SLP341
                 T10141046 =
2018-12-14 07:56 METAR KCEF 141256Z 00000KT 10SM BKN015 BKN036 M02/M05 A3051 RMK AO2A SLP341
                 T10201047 =
2018-12-14 07:45 METAR KCEF 141245Z 00000KT 10SM BKN017 BKN035 M02/M05 A3050 RMK AO2A SLP338 =
2018-12-14 06:56 METAR KCEF 141156Z 00000KT 10SM SCT019 BKN035 M02/M05 A3049 RMK AO2A SLP335
                 T10221047 11022 21027 55002 =
2018-12-14 05:56 METAR KCEF 141056Z AUTO 00000KT 10SM OVC038 M02/M05 A3049 RMK AO2 SLP335
                 T10231050 =
2018-12-14 04:56 METAR KCEF 140956Z AUTO 00000KT 10SM OVC039 M02/M05 A3049 RMK AO2 SLP335
                 T10241049 =
2018-12-14 03:56 METAR KCEF 140856Z AUTO 36003KT 10SM SCT019 OVC040 M02/M05 A3050 RMK AO2 SLP338
                 T10241049 57012 =
2018-12-14 02:56 METAR KCEF 140756Z AUTO 36004KT 10SM OVC018 M02/M05 A3051 RMK AO2 SLP341
                 T10251050 =
2018-12-14 01:56 METAR KCEF 140656Z AUTO 02003KT 10SM OVC018 M03/M05 A3053 RMK AO2 SLP348
                 T10261049 =
2018-12-14 01:11 METAR KCEF 140611Z AUTO 01003KT 10SM OVC019 M03/M05 A3053 RMK AO2 SLP348 =
2018-12-14 00:56 METAR KCEF 140556Z AUTO 01003KT 10SM OVC020 M03/M05 A3054 RMK AO2 SLP352
                 T10271050 11026 21035 50001 =
2018-12-13 23:56 METAR KCEF 140456Z AUTO 00000KT 10SM OVC022 M03/M05 A3054 RMK AO2 SLP352
                 T10281053 410281095 =
2018-12-13 22:56 METAR KCEF 140356Z 01003KT 10SM OVC023 M03/M05 A3054 RMK AO2A SLP352 T10281055 =
2018-12-13 21:56 METAR KCEF 140256Z 05003KT 10SM OVC022 M03/M05 A3053 RMK AO2A SLP348 T10301053
                 50003 =
2018-12-13 20:56 METAR KCEF 140156Z 02003KT 10SM OVC023 M03/M05 A3054 RMK AO2A SLP352 T10321055 =
2018-12-13 19:56 METAR KCEF 140056Z 03003KT 10SM OVC023 M03/M06 A3053 RMK AO2A SLP349 T10341056 =

Support USWX by starting your Amazon purchase here.